createdAt,value
2023-05-10T05:24:53.676Z,995.08
2023-05-10T05:25:54.603Z,995.09
2023-05-10T05:26:55.312Z,995.10
2023-05-10T05:27:55.216Z,995.11
2023-05-10T05:28:54.645Z,995.12
2023-05-10T05:29:54.564Z,995.13
2023-05-10T05:30:54.579Z,995.13
2023-05-10T05:31:55.637Z,995.13
2023-05-10T05:32:54.522Z,995.13
2023-05-10T05:33:54.511Z,995.13
2023-05-10T05:34:54.646Z,995.13
2023-05-10T05:35:54.484Z,995.13
2023-05-10T05:36:54.472Z,995.13
2023-05-10T05:37:54.464Z,995.14
2023-05-10T05:38:54.464Z,995.14
2023-05-10T05:39:54.483Z,995.14
2023-05-10T05:40:54.421Z,995.13
2023-05-10T05:41:54.477Z,995.14
2023-05-10T05:42:54.435Z,995.13
2023-05-10T05:43:54.401Z,995.13
2023-05-10T05:44:54.450Z,995.15
2023-05-10T05:45:54.464Z,995.16
2023-05-10T06:20:33.109Z,995.44
2023-05-10T06:21:34.052Z,995.45
2023-05-10T06:22:34.084Z,995.45
2023-05-10T06:23:34.045Z,995.47
2023-05-10T06:24:34.049Z,995.47
2023-05-10T06:25:34.011Z,995.49
2023-05-10T06:26:34.034Z,995.49
2023-05-10T06:27:33.980Z,995.51
2023-05-10T06:28:34.054Z,995.51
2023-05-10T06:29:33.966Z,995.52
2023-05-10T06:30:33.959Z,995.54
2023-05-10T06:31:34.007Z,995.54
2023-05-10T06:32:33.939Z,995.56
2023-05-10T06:33:33.953Z,995.57
2023-05-10T06:34:33.889Z,995.57
2023-05-10T06:35:33.904Z,995.57
2023-05-10T06:36:33.879Z,995.57
2023-05-10T06:37:33.870Z,995.58
2023-05-10T06:38:33.867Z,995.56
2023-05-10T06:39:33.895Z,995.56
2023-05-10T06:40:33.844Z,995.55
2023-05-10T06:41:33.834Z,995.56
2023-05-10T06:42:33.824Z,995.57
2023-05-10T06:43:33.797Z,995.57
2023-05-10T06:44:33.791Z,995.56
2023-05-10T06:45:33.841Z,995.57
2023-05-10T06:46:33.773Z,995.58
2023-05-10T06:47:34.735Z,995.59
2023-05-10T06:48:33.739Z,995.62
2023-05-10T06:49:33.727Z,995.62
2023-05-10T06:50:33.766Z,995.63
2023-05-10T10:33:42.983Z,996.50
2023-05-10T10:34:23.277Z,996.51
2023-05-10T10:35:23.362Z,996.53
2023-05-10T10:36:23.221Z,996.53
2023-05-10T10:37:23.228Z,996.53
2023-05-10T10:38:23.167Z,996.56
2023-05-10T10:39:22.906Z,996.56
2023-05-10T10:40:23.075Z,996.57
2023-05-10T10:41:22.868Z,996.57
2023-05-10T14:27:45.809Z,996.77
2023-05-10T14:28:46.761Z,996.74
2023-05-10T14:29:46.744Z,996.73
2023-05-10T14:30:46.974Z,996.75
2023-05-10T14:34:53.991Z,996.76
2023-05-10T14:37:21.425Z,996.77
2023-05-10T14:38:22.657Z,996.78
2023-05-10T14:39:22.637Z,996.77
2023-05-10T14:40:22.318Z,996.75
2023-05-10T14:41:22.350Z,996.75
2023-05-10T14:44:31.618Z,996.75
2023-05-10T14:44:36.996Z,996.77
2023-05-10T14:45:37.025Z,996.80
2023-05-10T14:46:37.238Z,996.77
2023-05-10T14:51:35.364Z,996.80
